Aeroporto :
LOGIN :

Iscrizione | Disclaimer

   EN    FR    IT 

 










Sommario :    VFR   VFR Marginale   IFR   IFR Intensivo   IFR Molto Intensivo
Visibilità : 
Base nubi : 
>= 8 km
>= 3000ft
5 / 8 km
1000 / 3000 ft
1500m / 5 km
500 / 1000 ft
800 / 1500m
200 / 500 ft
< 800m
< 200 ft
Simboli :   Temporali  Nebbia  Neve Forte  Precipitazioni Forti  Vento > 20 kt
SIGMETs :   Varie  Temporali  Ghiacco  Turbolenza  Onda orograficha  Ceneri Vulcaniche






- Altitudine del aeroporto : 1234 ft
- Codice IATA : LUX


ELLX - Luxembourg Findel

ULTIMO METAR :
  • 272220Z 27006KT 230V320 9999 BKN003 11/10 Q1023 NOSIG

METARs OBSOLETI :
  • 272150Z 29007KT 260V330 9999 BKN003 11/11 Q1023 NOSIG
  • 272120Z 28007KT 9999 FEW005 11/11 Q1022 NOSIG
  • 272050Z 27007KT 9999 FEW006 11/10 Q1022 NOSIG
  • 272020Z 27006KT CAVOK 11/11 Q1022 NOSIG
  • 271950Z 27005KT CAVOK 11/11 Q1021 NOSIG

TAF TAF ELLX
Valido dal 27 a 18 ore il 29 a 00 ore UTC


271700Z 2718/2824 22010KT 9999 SCT030
PROB30
TEMPO 2718/2720 26015G25KT 4000 SHRA BKN014
TEMPO 2719/2720 30010KT
BECMG 2721/2724 VRB02KT 4000 BR BKN008
PROB40
TEMPO 2801/2808 0200 FG BKN002
BECMG 2808/2811 26010KT 9999
ATIS : +352 4798 27300
Met : +352 4798 27010 / 27050



MetMap, La meteo Aeronautica in un colpo d'occhio ! - Copyright ORBIFLY Dicembre 2007 - Disclaimer

ORBIFLY MET'MAP TEAM :

Programmazione e sviluppo : Alexandra Zaïnal
Concezione : Baudouin d'Aumeries
Aiuto per la programmazione : Marc-Olivier Méhu
Supporto tecnico e logistico : Manuel Goepfert
Aiuto per la traduzione : Arnaldo La Scala

Contatto : metmap@orbifly.com




FONTI E CREDITI :

   NOAA